createdAt,value
2023-03-01T00:01:35.456Z,10.27
2023-03-01T00:04:02.376Z,10.93
2023-03-01T00:06:29.689Z,9.63
2023-03-01T00:08:57.250Z,8.98
2023-03-01T00:11:26.797Z,9.38
2023-03-01T00:13:56.200Z,8.50
2023-03-01T00:16:26.883Z,10.32
2023-03-01T00:18:54.783Z,10.27
2023-03-01T00:21:23.125Z,11.15
2023-03-01T00:23:50.283Z,10.45
2023-03-01T00:26:19.004Z,7.72
2023-03-01T00:28:46.728Z,7.93
2023-03-01T00:31:16.038Z,8.10
2023-03-01T00:33:44.800Z,10.27
2023-03-01T00:36:13.369Z,9.38
2023-03-01T00:38:41.975Z,9.40
2023-03-01T00:41:11.032Z,8.77
2023-03-01T00:43:38.197Z,9.45
2023-03-01T00:46:07.070Z,11.07
2023-03-01T00:48:34.198Z,9.07
2023-03-01T00:51:07.807Z,9.80
2023-03-01T00:53:35.215Z,8.00
2023-03-01T00:56:02.418Z,10.85
2023-03-01T00:58:29.653Z,9.95
2023-03-01T01:00:56.680Z,11.02
2023-03-01T01:03:25.807Z,11.88
2023-03-01T01:05:53.233Z,9.68
2023-03-01T01:08:22.000Z,12.73
2023-03-01T01:10:49.129Z,9.38
2023-03-01T01:13:16.099Z,6.97
2023-03-01T01:15:43.238Z,8.45
2023-03-01T01:18:10.246Z,7.78
2023-03-01T01:20:38.454Z,7.45
2023-03-01T01:23:07.623Z,7.93
2023-03-01T01:25:37.868Z,8.93
2023-03-01T01:28:04.962Z,6.88
2023-03-01T01:30:31.908Z,8.50
2023-03-01T01:32:58.854Z,9.02
2023-03-01T01:35:25.965Z,7.35
2023-03-01T01:37:52.977Z,7.32
2023-03-01T01:40:20.164Z,7.25
2023-03-01T01:42:48.476Z,7.10
2023-03-01T01:45:31.613Z,9.57
2023-03-01T01:48:02.118Z,8.38
2023-03-01T01:50:38.696Z,8.25
2023-03-01T01:53:10.218Z,8.38
2023-03-01T01:55:41.987Z,8.18
2023-03-01T01:58:12.121Z,8.93
2023-03-01T02:00:40.171Z,9.23
2023-03-01T02:03:11.108Z,9.45
2023-03-01T02:05:44.352Z,9.07
2023-03-01T02:08:13.483Z,8.63
2023-03-01T02:10:41.790Z,9.02
2023-03-01T02:13:12.007Z,10.10
2023-03-01T02:15:40.768Z,8.57
2023-03-01T02:18:09.414Z,10.57
2023-03-01T02:20:46.537Z,10.05
2023-03-01T02:23:13.483Z,8.90
2023-03-01T02:25:48.060Z,10.20
2023-03-01T02:28:30.452Z,9.85
2023-03-01T02:31:16.436Z,9.75
2023-03-01T02:33:45.128Z,10.27
2023-03-01T02:36:15.514Z,7.93
2023-03-01T02:38:43.806Z,9.45
2023-03-01T02:41:13.267Z,9.15
2023-03-01T02:43:41.852Z,10.23
2023-03-01T02:46:15.617Z,9.23
2023-03-01T02:48:44.995Z,9.18
2023-03-01T02:51:24.655Z,9.77
2023-03-01T02:54:02.706Z,8.27
2023-03-01T02:56:31.024Z,9.57
2023-03-01T02:59:01.777Z,10.95
2023-03-01T03:01:37.591Z,10.32
2023-03-01T03:04:07.039Z,10.05
2023-03-01T03:06:34.575Z,9.82
2023-03-01T03:09:01.752Z,12.00
2023-03-01T03:11:28.936Z,11.10
2023-03-01T03:13:56.218Z,12.32
2023-03-01T03:16:25.714Z,10.35
2023-03-01T03:18:52.791Z,13.55
2023-03-01T03:21:19.754Z,10.85
2023-03-01T03:23:46.672Z,12.05
2023-03-01T03:26:14.417Z,8.02
2023-03-01T03:28:41.433Z,8.90
2023-03-01T03:31:09.383Z,10.85
2023-03-01T03:33:38.156Z,10.05
2023-03-01T03:36:06.002Z,10.02
2023-03-01T03:38:33.321Z,8.60
2023-03-01T03:41:05.351Z,9.38
2023-03-01T03:43:33.955Z,8.73
2023-03-01T03:46:01.691Z,10.35
2023-03-01T03:48:28.713Z,10.45
2023-03-01T03:50:57.598Z,11.05
2023-03-01T03:53:26.623Z,12.50
2023-03-01T03:55:54.281Z,8.75
2023-03-01T03:58:23.677Z,9.23
2023-03-01T04:00:52.436Z,10.85
2023-03-01T04:03:20.875Z,11.57
2023-03-01T04:05:48.988Z,10.52
2023-03-01T04:08:17.955Z,10.15
2023-03-01T04:10:48.876Z,10.52
2023-03-01T04:13:20.711Z,11.32
2023-03-01T04:15:49.367Z,10.00
2023-03-01T04:18:18.205Z,10.50
2023-03-01T04:20:46.182Z,11.20
2023-03-01T04:23:16.923Z,10.65
2023-03-01T04:25:54.976Z,10.82
2023-03-01T04:28:22.946Z,12.90
2023-03-01T04:30:49.910Z,12.10
2023-03-01T04:33:16.958Z,16.15
2023-03-01T04:35:44.113Z,12.82
2023-03-01T04:38:11.516Z,11.77
2023-03-01T04:40:38.641Z,11.02
2023-03-01T04:43:06.988Z,12.65
2023-03-01T04:45:35.508Z,14.20
2023-03-01T04:48:03.050Z,12.30
2023-03-01T04:50:30.745Z,13.30
2023-03-01T04:53:00.226Z,17.15
2023-03-01T04:55:28.409Z,16.00
2023-03-01T04:57:55.966Z,15.20
2023-03-01T05:00:24.982Z,14.30
2023-03-01T05:02:54.789Z,18.08
2023-03-01T05:05:26.621Z,14.43
2023-03-01T05:07:55.855Z,13.80
2023-03-01T05:10:23.117Z,15.57
2023-03-01T05:12:50.088Z,14.38
2023-03-01T05:15:17.294Z,19.20
2023-03-01T05:17:45.632Z,14.02
2023-03-01T05:20:12.879Z,16.83
2023-03-01T05:22:39.845Z,18.58
2023-03-01T05:25:08.295Z,15.43
2023-03-01T05:27:35.938Z,18.65
2023-03-01T05:30:14.449Z,14.00
2023-03-01T05:32:44.009Z,17.02
2023-03-01T05:35:14.230Z,16.40
2023-03-01T05:37:42.712Z,15.73
2023-03-01T05:40:16.707Z,18.20
2023-03-01T05:42:44.620Z,19.90
2023-03-01T05:45:13.434Z,18.45
2023-03-01T05:47:44.443Z,16.77
2023-03-01T05:50:20.807Z,17.17
2023-03-01T05:52:53.538Z,18.58
2023-03-01T05:55:22.236Z,15.60
2023-03-01T05:57:49.489Z,19.08
2023-03-01T06:00:19.598Z,17.33
2023-03-01T06:02:46.777Z,17.92
2023-03-01T06:05:15.740Z,15.80
2023-03-01T06:07:42.863Z,15.75
2023-03-01T06:10:11.436Z,18.00
2023-03-01T06:12:39.844Z,17.73
2023-03-01T06:15:10.756Z,19.67
2023-03-01T06:17:39.495Z,15.55
2023-03-01T06:20:10.646Z,17.15
2023-03-01T06:22:39.183Z,17.77
2023-03-01T06:25:07.353Z,19.85
2023-03-01T06:27:34.295Z,20.15
2023-03-01T06:30:01.223Z,19.90
2023-03-01T06:32:28.200Z,20.90
2023-03-01T06:34:55.161Z,24.38
2023-03-01T06:37:22.057Z,22.10
2023-03-01T06:39:50.945Z,20.95
2023-03-01T06:42:17.858Z,22.08
2023-03-01T06:44:46.670Z,24.95
2023-03-01T06:47:13.673Z,23.20
2023-03-01T06:49:42.572Z,22.45
2023-03-01T06:52:09.507Z,24.38
2023-03-01T06:54:38.029Z,22.17
2023-03-01T06:57:06.357Z,18.33
2023-03-01T06:59:33.421Z,21.77
2023-03-01T07:02:00.434Z,21.23
2023-03-01T07:04:29.630Z,21.48
2023-03-01T07:06:56.588Z,19.10
2023-03-01T07:09:24.515Z,23.90
2023-03-01T07:11:51.778Z,22.50
2023-03-01T07:14:21.156Z,20.90
2023-03-01T07:16:48.418Z,20.65
2023-03-01T07:19:15.309Z,22.95
2023-03-01T07:21:42.273Z,20.33
2023-03-01T07:24:09.741Z,23.33
2023-03-01T07:26:37.285Z,21.00
2023-03-01T07:29:05.609Z,26.70
2023-03-01T07:31:34.047Z,23.15
2023-03-01T07:34:00.981Z,35.65
2023-03-01T07:36:28.021Z,24.02
2023-03-01T07:38:56.695Z,24.58
2023-03-01T07:41:23.667Z,23.75
2023-03-01T07:43:50.759Z,23.02
2023-03-01T07:46:18.806Z,19.35
2023-03-01T07:48:47.293Z,24.13
2023-03-01T07:51:14.463Z,20.35
2023-03-01T07:53:41.439Z,17.73
2023-03-01T07:56:10.235Z,16.92
2023-03-01T07:58:38.578Z,21.45
2023-03-01T08:01:07.286Z,16.67
2023-03-01T08:03:34.669Z,20.10
2023-03-01T08:06:04.232Z,20.10
2023-03-01T08:08:31.646Z,22.98
2023-03-01T08:10:58.712Z,22.52
2023-03-01T08:13:26.024Z,24.85
2023-03-01T08:15:53.600Z,22.17
2023-03-01T08:18:22.127Z,27.92
2023-03-01T08:20:49.350Z,20.67
2023-03-01T08:23:17.643Z,22.50
2023-03-01T08:25:44.795Z,21.98
2023-03-01T08:28:11.760Z,23.27
2023-03-01T08:30:41.470Z,26.63
2023-03-01T08:33:08.521Z,19.33
2023-03-01T08:35:35.557Z,21.02
2023-03-01T08:38:02.521Z,25.52
2023-03-01T08:40:30.846Z,22.60
2023-03-01T08:42:59.092Z,21.40
2023-03-01T08:45:26.192Z,24.33
2023-03-01T08:47:53.962Z,22.98
2023-03-01T08:50:21.049Z,23.10
2023-03-01T08:52:48.042Z,25.25
2023-03-01T08:55:17.319Z,27.55
2023-03-01T08:57:48.178Z,21.92
2023-03-01T09:00:16.256Z,23.85
2023-03-01T09:02:43.211Z,25.98
2023-03-01T09:05:10.383Z,29.25
2023-03-01T09:07:37.612Z,25.88
2023-03-01T09:10:06.093Z,25.00
2023-03-01T09:12:33.059Z,23.77
2023-03-01T09:15:01.384Z,23.60
2023-03-01T09:17:28.879Z,20.17
2023-03-01T09:19:55.808Z,25.85
2023-03-01T09:22:22.759Z,26.15
2023-03-01T09:24:52.513Z,23.17
2023-03-01T09:27:20.677Z,26.17
2023-03-01T09:29:47.653Z,23.92
2023-03-01T09:32:16.013Z,22.90
2023-03-01T09:35:01.766Z,21.92
2023-03-01T09:37:28.805Z,24.65
2023-03-01T09:39:55.762Z,29.55
2023-03-01T09:42:22.904Z,28.42
2023-03-01T09:44:58.631Z,29.30
2023-03-01T09:47:28.880Z,28.77
2023-03-01T09:50:03.062Z,23.92
2023-03-01T09:52:36.843Z,25.05
2023-03-01T09:55:11.451Z,25.48
2023-03-01T09:57:47.146Z,28.35
2023-03-01T10:00:24.636Z,23.23
2023-03-01T10:03:00.835Z,22.00
2023-03-01T10:05:44.614Z,23.85
2023-03-01T10:08:37.374Z,24.33
2023-03-01T10:11:05.914Z,23.83
2023-03-01T10:13:39.538Z,23.90
2023-03-01T10:16:14.816Z,26.42
2023-03-01T10:18:47.712Z,26.27
2023-03-01T10:21:17.747Z,31.08
2023-03-01T10:23:44.967Z,22.55
2023-03-01T10:26:33.621Z,24.65
2023-03-01T10:29:04.184Z,27.88
2023-03-01T10:31:40.427Z,30.27
2023-03-01T10:34:18.404Z,27.55
2023-03-01T10:36:49.352Z,27.15
2023-03-01T10:39:19.208Z,24.08
2023-03-01T10:41:56.229Z,24.63
2023-03-01T10:44:45.633Z,25.77
2023-03-01T10:47:25.694Z,20.25
2023-03-01T10:49:57.127Z,20.73
2023-03-01T10:52:26.876Z,19.80
2023-03-01T10:54:56.909Z,27.52
2023-03-01T10:57:39.930Z,21.92
2023-03-01T11:00:23.379Z,25.10
2023-03-01T11:02:52.896Z,23.27
2023-03-01T11:05:29.536Z,26.15
2023-03-01T11:07:58.607Z,24.95
2023-03-01T11:10:30.788Z,26.13
2023-03-01T11:13:08.104Z,28.50
2023-03-01T11:15:35.533Z,27.63
2023-03-01T11:18:13.843Z,26.67
2023-03-01T11:20:44.488Z,26.58
2023-03-01T11:23:16.944Z,30.48
2023-03-01T11:25:52.187Z,36.45
2023-03-01T11:31:05.738Z,27.08
2023-03-01T11:33:40.646Z,31.80
2023-03-01T11:36:17.690Z,30.38
2023-03-01T11:38:45.039Z,27.33
2023-03-01T11:41:17.214Z,29.48
2023-03-01T11:43:52.051Z,27.58
2023-03-01T11:46:44.329Z,32.33
2023-03-01T11:49:30.326Z,33.15
2023-03-01T11:52:08.512Z,27.73
2023-03-01T11:54:49.835Z,29.23
2023-03-01T11:57:37.772Z,32.17
2023-03-01T12:00:25.756Z,25.48
2023-03-01T12:03:21.047Z,23.15
2023-03-01T12:06:32.564Z,26.35
2023-03-01T12:09:15.358Z,26.02
2023-03-01T12:11:56.849Z,23.83
2023-03-01T12:14:55.565Z,25.95
2023-03-01T12:17:38.553Z,25.83
2023-03-01T12:20:23.525Z,24.98
2023-03-01T12:23:19.414Z,28.33
2023-03-01T12:25:54.453Z,25.02
2023-03-01T12:28:39.370Z,26.38
2023-03-01T12:31:41.367Z,24.65
2023-03-01T12:34:22.190Z,26.80
2023-03-01T12:37:02.730Z,27.40
2023-03-01T12:39:41.731Z,29.25
2023-03-01T12:42:22.289Z,27.80
2023-03-01T12:45:13.512Z,25.15
2023-03-01T12:47:58.796Z,29.40
2023-03-01T12:50:31.175Z,29.98
2023-03-01T12:52:58.782Z,25.77
2023-03-01T12:55:31.165Z,26.45
2023-03-01T12:58:05.943Z,24.40
2023-03-01T13:00:38.012Z,25.08
2023-03-01T13:03:16.336Z,28.13
2023-03-01T13:05:57.360Z,20.55
2023-03-01T13:08:30.931Z,32.97
2023-03-01T13:11:01.749Z,33.38
2023-03-01T13:13:30.869Z,25.17
2023-03-01T13:15:58.645Z,29.25
2023-03-01T13:18:31.801Z,24.88
2023-03-01T13:21:01.507Z,30.52
2023-03-01T13:23:32.035Z,25.02
2023-03-01T13:26:14.017Z,28.25
2023-03-01T13:28:50.840Z,26.10
2023-03-01T13:32:00.522Z,30.52
2023-03-01T13:34:51.325Z,28.65
2023-03-01T13:37:30.610Z,28.52
2023-03-01T13:39:59.857Z,29.58
2023-03-01T13:42:38.412Z,34.33
2023-03-01T13:45:18.158Z,33.97
2023-03-01T13:47:48.287Z,32.35
2023-03-01T13:50:22.224Z,43.15
2023-03-01T13:52:53.288Z,34.30
2023-03-01T13:55:24.558Z,37.42
2023-03-01T13:57:54.854Z,33.85
2023-03-01T14:00:35.618Z,30.40
2023-03-01T14:03:11.102Z,36.92
2023-03-01T14:05:39.536Z,33.90
2023-03-01T14:08:20.677Z,38.72
2023-03-01T14:11:00.021Z,38.50
2023-03-01T14:13:39.089Z,33.38
2023-03-01T14:16:19.339Z,32.25
2023-03-01T14:18:54.935Z,37.95
2023-03-01T14:21:23.645Z,34.78
2023-03-01T14:23:50.715Z,33.55
2023-03-01T14:26:22.533Z,35.60
2023-03-01T14:28:51.754Z,31.25
2023-03-01T14:31:52.003Z,36.97
2023-03-01T14:34:21.881Z,32.78
2023-03-01T14:36:48.880Z,30.65
2023-03-01T14:39:21.361Z,33.55
2023-03-01T14:41:49.779Z,35.83
2023-03-01T14:44:23.935Z,33.10
2023-03-01T14:46:56.117Z,42.65
2023-03-01T14:49:25.453Z,33.90
2023-03-01T14:51:56.120Z,38.13
2023-03-01T14:54:26.880Z,43.50
2023-03-01T14:56:55.015Z,36.40
2023-03-01T14:59:24.507Z,39.63
2023-03-01T15:01:52.909Z,37.70
2023-03-01T15:04:23.353Z,37.00
2023-03-01T15:06:52.868Z,38.78
2023-03-01T15:09:20.109Z,40.05
2023-03-01T15:11:47.119Z,36.17
2023-03-01T15:14:40.080Z,42.58
2023-03-01T15:17:21.953Z,34.45
2023-03-01T15:19:50.550Z,33.83
2023-03-01T15:22:18.482Z,41.42
2023-03-01T15:24:49.243Z,34.63
2023-03-01T15:27:18.220Z,33.92
2023-03-01T15:29:50.466Z,30.42
2023-03-01T15:32:28.215Z,37.20
2023-03-01T15:34:57.356Z,47.30
2023-03-01T15:37:45.670Z,42.50
2023-03-01T15:40:22.403Z,36.72
2023-03-01T15:42:49.628Z,40.35
2023-03-01T15:45:24.445Z,49.00
2023-03-01T15:47:53.756Z,42.78
2023-03-01T15:50:24.897Z,38.90
2023-03-01T15:52:52.249Z,43.00
2023-03-01T15:55:21.085Z,45.92
2023-03-01T15:57:48.921Z,39.22
2023-03-01T16:00:18.506Z,40.13
2023-03-01T16:02:45.783Z,41.55
2023-03-01T16:05:24.364Z,43.10
2023-03-01T16:07:52.056Z,39.17
2023-03-01T16:10:20.055Z,46.25
2023-03-01T16:12:48.443Z,45.13
2023-03-01T16:15:17.922Z,37.20
2023-03-01T16:17:45.171Z,52.05
2023-03-01T16:20:28.424Z,40.25
2023-03-01T16:22:56.873Z,53.90
2023-03-01T16:25:23.775Z,54.13
2023-03-01T16:27:52.000Z,48.80
2023-03-01T16:30:21.605Z,46.58
2023-03-01T16:32:49.702Z,48.78
2023-03-01T16:35:19.656Z,39.15
2023-03-01T16:37:48.920Z,47.63
2023-03-01T16:40:18.457Z,39.97
2023-03-01T16:42:45.525Z,41.03
2023-03-01T16:45:22.737Z,39.70
2023-03-01T16:47:50.611Z,43.60
2023-03-01T16:50:17.665Z,39.17
2023-03-01T16:52:44.616Z,38.67
2023-03-01T16:55:13.339Z,43.75
2023-03-01T16:57:41.540Z,34.67
2023-03-01T17:00:11.602Z,43.85
2023-03-01T17:02:38.839Z,41.95
2023-03-01T17:05:06.982Z,37.65
2023-03-01T17:07:35.217Z,39.88
2023-03-01T17:10:02.846Z,41.53
2023-03-01T17:12:31.283Z,40.85
2023-03-01T17:14:58.391Z,41.40
2023-03-01T17:17:25.449Z,46.38
2023-03-01T17:19:55.678Z,44.13
2023-03-01T17:22:22.977Z,42.50
2023-03-01T17:24:49.946Z,39.00
2023-03-01T17:27:17.891Z,45.08
2023-03-01T17:29:46.367Z,59.00
2023-03-01T17:32:13.661Z,50.88
2023-03-01T17:34:40.788Z,53.25
2023-03-01T17:37:07.895Z,51.58
2023-03-01T17:39:36.498Z,57.80
2023-03-01T17:42:06.185Z,49.45
2023-03-01T17:44:34.619Z,47.28
2023-03-01T17:47:03.842Z,47.47
2023-03-01T17:49:31.718Z,45.50
2023-03-01T17:51:59.115Z,50.22
2023-03-01T17:54:26.524Z,49.30
2023-03-01T17:56:53.567Z,51.58
2023-03-01T17:59:20.766Z,52.03
2023-03-01T18:01:48.184Z,49.70
2023-03-01T18:04:18.480Z,45.65
2023-03-01T18:06:45.593Z,46.58
2023-03-01T18:09:12.543Z,53.67
2023-03-01T18:11:42.034Z,46.25
2023-03-01T18:14:08.985Z,49.90
2023-03-01T18:16:36.435Z,46.45
2023-03-01T18:19:03.557Z,50.58
2023-03-01T18:21:32.886Z,50.28
2023-03-01T18:24:00.024Z,49.35
2023-03-01T18:26:28.083Z,49.90
2023-03-01T18:28:58.168Z,52.42
2023-03-01T18:31:25.620Z,45.38
2023-03-01T18:33:55.102Z,43.85
2023-03-01T18:36:24.385Z,44.00
2023-03-01T18:38:56.625Z,45.58
2023-03-01T18:41:25.281Z,45.17
2023-03-01T18:43:52.730Z,44.45
2023-03-01T18:46:22.914Z,47.92
2023-03-01T18:48:49.913Z,46.85
2023-03-01T18:51:18.356Z,44.58
2023-03-01T18:53:45.426Z,46.45
2023-03-01T18:56:14.364Z,49.88
2023-03-01T18:58:43.081Z,52.80
2023-03-01T19:01:14.321Z,49.42
2023-03-01T19:03:41.466Z,44.97
2023-03-01T19:06:08.491Z,40.13
2023-03-01T19:08:35.599Z,46.95
2023-03-01T19:11:05.392Z,37.83
2023-03-01T19:13:37.372Z,41.88
2023-03-01T19:16:07.016Z,40.00
2023-03-01T19:18:34.091Z,38.90
2023-03-01T19:21:04.289Z,38.33
2023-03-01T19:23:36.387Z,39.08
2023-03-01T19:26:09.037Z,39.22
2023-03-01T19:28:39.592Z,45.72
2023-03-01T19:31:08.466Z,44.70
2023-03-01T19:33:36.415Z,49.30
2023-03-01T19:36:04.828Z,44.45
2023-03-01T19:38:31.810Z,44.17
2023-03-01T19:40:58.875Z,45.35
2023-03-01T19:43:25.823Z,49.70
2023-03-01T19:45:55.252Z,46.72
2023-03-01T19:48:22.847Z,41.20
2023-03-01T19:50:52.290Z,45.15
2023-03-01T19:53:20.037Z,42.05
2023-03-01T19:55:46.987Z,43.30
2023-03-01T19:58:13.931Z,40.83
2023-03-01T20:00:44.942Z,40.33
2023-03-01T20:03:13.518Z,39.40
2023-03-01T20:05:42.817Z,39.63
2023-03-01T20:08:09.825Z,38.80
2023-03-01T20:10:36.777Z,38.83
2023-03-01T20:13:03.748Z,39.83
2023-03-01T20:15:31.159Z,35.08
2023-03-01T20:17:58.118Z,39.15
2023-03-01T20:20:26.595Z,36.28
2023-03-01T20:22:53.568Z,36.72
2023-03-01T20:25:20.512Z,41.58
2023-03-01T20:27:47.904Z,37.92
2023-03-01T20:30:15.657Z,42.20
2023-03-01T20:32:43.041Z,36.75
2023-03-01T20:35:11.333Z,34.55
2023-03-01T20:37:39.681Z,36.63
2023-03-01T20:40:09.586Z,39.53
2023-03-01T20:42:36.611Z,32.47
2023-03-01T20:45:04.374Z,35.92
2023-03-01T20:47:31.278Z,35.00
2023-03-01T20:50:01.455Z,35.47
2023-03-01T20:52:32.341Z,32.45
2023-03-01T20:55:08.310Z,33.47
2023-03-01T20:57:35.723Z,34.65
2023-03-01T21:00:06.847Z,30.33
2023-03-01T21:02:33.771Z,31.73
2023-03-01T21:05:00.805Z,33.78
2023-03-01T21:07:27.800Z,30.92
2023-03-01T21:09:54.808Z,31.63
2023-03-01T21:12:23.100Z,34.53
2023-03-01T21:14:50.036Z,30.67
2023-03-01T21:17:17.824Z,31.55
2023-03-01T21:19:45.264Z,33.95
2023-03-01T21:22:13.791Z,39.92
2023-03-01T21:24:40.976Z,34.65
2023-03-01T21:27:08.151Z,32.33
2023-03-01T21:29:37.355Z,37.75
2023-03-01T21:32:05.087Z,32.45
2023-03-01T21:34:32.542Z,35.20
2023-03-01T21:36:59.829Z,33.35
2023-03-01T21:39:28.946Z,34.97
2023-03-01T21:41:57.331Z,37.47
2023-03-01T21:44:25.113Z,36.38
2023-03-01T21:46:53.634Z,34.28
2023-03-01T21:49:21.841Z,31.10
2023-03-01T21:51:49.056Z,35.92
2023-03-01T21:54:17.741Z,35.60
2023-03-01T21:56:45.931Z,40.13
2023-03-01T21:59:15.062Z,33.67
2023-03-01T22:01:43.439Z,39.58
2023-03-01T22:04:13.168Z,37.50
2023-03-01T22:06:45.481Z,31.05
2023-03-01T22:09:14.497Z,38.08
2023-03-01T22:11:43.696Z,33.53
2023-03-01T22:14:13.612Z,32.97
2023-03-01T22:16:42.993Z,31.02
2023-03-01T22:19:12.213Z,32.65
2023-03-01T22:21:40.152Z,34.70
2023-03-01T22:24:08.198Z,32.80
2023-03-01T22:26:37.472Z,36.58
2023-03-01T22:29:06.771Z,34.80
2023-03-01T22:31:34.115Z,35.17
2023-03-01T22:34:02.000Z,39.25
2023-03-01T22:36:31.470Z,34.30
2023-03-01T22:39:00.281Z,37.30
2023-03-01T22:41:28.545Z,37.22
2023-03-01T22:43:55.648Z,38.47
2023-03-01T22:46:22.974Z,38.33
2023-03-01T22:48:50.074Z,39.50
2023-03-01T22:51:19.299Z,35.08
2023-03-01T22:53:48.260Z,35.50
2023-03-01T22:56:17.856Z,31.95
2023-03-01T22:58:45.291Z,33.03
2023-03-01T23:01:14.050Z,32.92
2023-03-01T23:03:41.369Z,29.02
2023-03-01T23:06:09.182Z,32.42
2023-03-01T23:08:36.724Z,34.30
2023-03-01T23:11:10.524Z,34.58
2023-03-01T23:13:37.557Z,34.92
2023-03-01T23:16:05.096Z,39.38
2023-03-01T23:18:32.020Z,35.40
2023-03-01T23:20:59.132Z,35.92
2023-03-01T23:23:26.733Z,34.20
2023-03-01T23:25:54.849Z,33.15
2023-03-01T23:28:23.702Z,35.35
2023-03-01T23:30:54.937Z,37.60
2023-03-01T23:33:21.963Z,29.92
2023-03-01T23:35:48.997Z,32.40
2023-03-01T23:38:15.975Z,32.45
2023-03-01T23:40:43.039Z,30.92
2023-03-01T23:43:10.071Z,32.25
2023-03-01T23:45:42.942Z,34.47
2023-03-01T23:48:11.699Z,29.77
2023-03-01T23:50:42.210Z,31.02
2023-03-01T23:53:14.312Z,30.75
2023-03-01T23:55:45.900Z,30.30
2023-03-01T23:58:13.604Z,31.95
